Chiniot Weather



Chiniot's Current Weather

Temprature 42.48o few clouds

few clouds

Rain: 0 %

Min Temprature42.48o
Max Temprature42.48o
Humidity24
Wind Speed0.31 m/h
Sun Rise05:18:32
Sun Set19:10:19
Current Time: 24-Jul-2021 14:59:04
Lat/Lon: 31.72, 72.9789




Chiniot's Geo Location



Chiniot's Weather Forecast

Time Overall Temp Min Temp Max Temp Humidity Wind Speed Rain
24-Jul-2021 (Sat)
17:00:00 clear sky 42.510 42.330 42.510 24 0.79 m/h 0 %
20:00:00 few clouds 40.710 39.770 40.710 28 2.62 m/h 0 %
23:00:00 few clouds 37.530 37.530 37.530 37 4.19 m/h 0 %
25-Jul-2021 (Sun)
02:00:00 clear sky 35.800 35.800 35.800 42 3.06 m/h 0 %
05:00:00 clear sky 34.550 34.550 34.550 46 2.79 m/h 0 %
08:00:00 broken clouds 37.800 37.800 37.800 39 3.64 m/h 0 %
11:00:00 scattered clouds 42.020 42.020 42.020 28 2.15 m/h 0 %
14:00:00 clear sky 45.050 45.050 45.050 21 1.14 m/h 0 %
17:00:00 clear sky 45.050 45.050 45.050 19 1.32 m/h 0 %
20:00:00 few clouds 41.920 41.920 41.920 24 1.9 m/h 0 %
23:00:00 scattered clouds 38.430 38.430 38.430 38 6.71 m/h 0 %
26-Jul-2021 (Mon)
02:00:00 overcast clouds 36.000 36.000 36.000 47 5.28 m/h 0 %
05:00:00 broken clouds 34.720 34.720 34.720 51 4.21 m/h 0 %
08:00:00 scattered clouds 37.570 37.570 37.570 41 3.13 m/h 0 %
11:00:00 broken clouds 42.650 42.650 42.650 27 1.82 m/h 0 %
14:00:00 broken clouds 45.230 45.230 45.230 22 2.27 m/h 0 %
17:00:00 broken clouds 44.860 44.860 44.860 22 1.97 m/h 0 %
20:00:00 overcast clouds 40.190 40.190 40.190 33 6.73 m/h 0 %
23:00:00 overcast clouds 38.460 38.460 38.460 36 5.59 m/h 0 %
27-Jul-2021 (Tue)
02:00:00 overcast clouds 36.820 36.820 36.820 40 3.96 m/h 0 %
05:00:00 overcast clouds 35.020 35.020 35.020 45 3.38 m/h 0 %
08:00:00 scattered clouds 35.030 35.030 35.030 47 5.24 m/h 0 %
11:00:00 broken clouds 38.340 38.340 38.340 39 3.94 m/h 0 %
14:00:00 overcast clouds 41.000 41.000 41.000 33 4.38 m/h 0 %
17:00:00 overcast clouds 40.610 40.610 40.610 32 4.38 m/h 0 %
20:00:00 broken clouds 37.530 37.530 37.530 38 7.57 m/h 0 %
23:00:00 light rain 34.900 34.900 34.900 46 6.7 m/h 25 %
28-Jul-2021 (Wed)
02:00:00 light rain 32.330 32.330 32.330 55 5.6 m/h 39 %
05:00:00 light rain 31.400 31.400 31.400 59 3.79 m/h 19 %
08:00:00 broken clouds 32.850 32.850 32.850 54 4.12 m/h 0 %
11:00:00 overcast clouds 35.650 35.650 35.650 46 4.52 m/h 0 %
14:00:00 overcast clouds 35.580 35.580 35.580 46 4.5 m/h 0 %
17:00:00 light rain 34.510 34.510 34.510 49 5.56 m/h 12 %
20:00:00 light rain 31.950 31.950 31.950 60 5.92 m/h 11 %
23:00:00 overcast clouds 30.160 30.160 30.160 69 4.15 m/h 0 %
29-Jul-2021 (Thu)
02:00:00 light rain 28.430 28.430 28.430 76 1.71 m/h 94 %
05:00:00 light rain 28.420 28.420 28.420 76 2.45 m/h 244 %
08:00:00 broken clouds 30.070 30.070 30.070 70 2.76 m/h 0 %
11:00:00 broken clouds 34.520 34.520 34.520 52 2.15 m/h 0 %
14:00:00 light rain 37.100 37.100 37.100 44 0.44 m/h 16 %


Chiniot's Tourist Spots

Historical Places in Chiniot

Famous Cities (60)